createdAt,value
2023-02-19T00:06:31.168Z,84.6
2023-02-19T00:22:05.598Z,84.7
2023-02-19T00:37:40.030Z,84.8
2023-02-19T00:53:14.527Z,85
2023-02-19T01:08:48.942Z,85
2023-02-19T01:24:23.364Z,85.4
2023-02-19T01:39:57.797Z,85.2
2023-02-19T01:55:32.269Z,85.3
2023-02-19T02:11:06.715Z,84.8
2023-02-19T02:26:41.372Z,83.7
2023-02-19T02:42:15.710Z,82.2
2023-02-19T02:57:49.731Z,81.5
2023-02-19T03:13:24.029Z,81.3
2023-02-19T03:28:58.307Z,81.2
2023-02-19T03:44:32.352Z,81
2023-02-19T04:00:06.677Z,80
2023-02-19T04:15:40.728Z,79.8
2023-02-19T04:31:15.634Z,79.8
2023-02-19T04:46:49.964Z,79.5
2023-02-19T05:02:23.834Z,79.1
2023-02-19T05:17:58.126Z,78
2023-02-19T05:33:31.879Z,79.3
2023-02-19T05:49:05.632Z,86.4
2023-02-19T06:04:39.371Z,91.5
2023-02-19T06:20:13.403Z,90.4
2023-02-19T06:35:47.464Z,90.6
2023-02-19T06:51:21.736Z,93.8
2023-02-19T07:06:56.019Z,94.3
2023-02-19T07:22:30.025Z,91.7
2023-02-19T07:38:04.041Z,91.3
2023-02-19T07:53:37.523Z,90
2023-02-19T08:09:10.991Z,88.6
2023-02-19T08:24:45.037Z,88.3
2023-02-19T08:40:19.338Z,86.9
2023-02-19T08:55:53.737Z,85.5
2023-02-19T09:11:27.740Z,83.7
2023-02-19T09:27:05.078Z,81.6
2023-02-19T09:42:39.159Z,94.5
2023-02-19T09:58:13.408Z,96.6
2023-02-19T10:13:47.455Z,97.7
2023-02-19T10:29:21.690Z,97.4
2023-02-19T10:44:55.459Z,96.2
2023-02-19T11:00:29.707Z,97
2023-02-19T11:16:03.871Z,94.4
2023-02-19T11:31:38.786Z,93.5
2023-02-19T11:47:12.732Z,93.4
2023-02-19T12:02:47.111Z,89.6
2023-02-19T12:18:21.410Z,88.5
2023-02-19T12:33:55.441Z,85.8
2023-02-19T12:49:29.703Z,83.3
2023-02-19T13:05:03.969Z,86.8
2023-02-19T13:20:37.945Z,80.2
2023-02-19T13:36:12.206Z,79.3
2023-02-19T13:51:46.464Z,78.2
2023-02-19T14:07:20.708Z,75.4
2023-02-19T14:22:54.683Z,79.4
2023-02-19T14:38:28.716Z,80.9
2023-02-19T14:54:03.265Z,78.1
2023-02-19T15:09:37.674Z,78
2023-02-19T15:25:14.849Z,80.2
2023-02-19T15:40:48.326Z,78.4
2023-02-19T15:56:22.594Z,81.1
2023-02-19T16:11:57.010Z,81.2
2023-02-19T16:27:31.310Z,81.8
2023-02-19T16:43:05.327Z,83.1
2023-02-19T16:58:41.112Z,84.6
2023-02-19T17:14:14.826Z,87.8
2023-02-19T17:29:49.116Z,88.4
2023-02-19T17:45:23.116Z,87.1
2023-02-19T18:00:57.526Z,88.5
2023-02-19T18:16:31.396Z,90
2023-02-19T18:32:05.652Z,89.8
2023-02-19T18:47:39.810Z,90.5
2023-02-19T19:03:17.886Z,91.9
2023-02-19T19:18:52.184Z,89.5
2023-02-19T19:34:26.435Z,89.7
2023-02-19T19:50:00.692Z,90.3
2023-02-19T20:05:34.757Z,91.1
2023-02-19T20:21:09.000Z,90
2023-02-19T20:36:43.269Z,90.7
2023-02-19T20:52:17.498Z,91
2023-02-19T21:07:50.958Z,91
2023-02-19T21:23:24.948Z,91.9
2023-02-19T21:38:59.231Z,90.7
2023-02-19T21:54:33.506Z,91.6
2023-02-19T22:10:07.750Z,91.8
2023-02-19T22:25:41.735Z,92.7
2023-02-19T22:41:16.017Z,92.8
2023-02-19T22:56:49.769Z,93
2023-02-19T23:12:24.023Z,93.6
2023-02-19T23:27:58.016Z,93.3
2023-02-19T23:43:32.251Z,94.8
2023-02-19T23:59:06.516Z,95.7
